Time;durP1;ratioP1;P1;durP2;ratioP2;P2;SDS_P1;SDS_P2;PMS_P1;PMS_P2;Temp;Humidity;BMP_temperature;BMP_pressure;BME280_temperature;BME280_humidity;BME280_pressure;Samples;Min_cycle;Max_cycle;Signal;HPM_P1;HPM_P2
2023/03/31 00:00:48;;;;;;;17.98;3.88;;;11.40;99.90;;;;;;6306742;22;20022;-82
2023/03/31 00:03:20;;;;;;;18.40;4.00;;;11.40;99.90;;;;;;6306063;22;20449;-84
2023/03/31 00:05:47;;;;;;;11.48;2.60;;;11.40;99.90;;;;;;6334213;22;20469;-82
2023/03/31 00:08:13;;;;;;;12.95;2.92;;;11.40;99.90;;;;;;6306005;22;20098;-83
2023/03/31 00:10:44;;;;;;;18.08;3.92;;;11.40;99.90;;;;;;6334570;22;20018;-83
2023/03/31 00:13:10;;;;;;;16.92;4.10;;;11.30;99.90;;;;;;6306504;22;20019;-84
2023/03/31 00:15:36;;;;;;;16.92;3.92;;;11.30;99.90;;;;;;6334020;22;20022;-84
2023/03/31 00:18:02;;;;;;;18.65;3.20;;;11.30;99.90;;;;;;6334441;22;20025;-83
2023/03/31 00:20:28;;;;;;;13.07;3.95;;;11.30;99.90;;;;;;6306621;22;20395;-82
2023/03/31 00:22:56;;;;;;;13.80;3.20;;;11.30;99.90;;;;;;6306114;22;20025;-83
2023/03/31 00:25:22;;;;;;;18.95;3.25;;;11.20;99.90;;;;;;6333974;22;20025;-82
2023/03/31 00:27:51;;;;;;;17.13;3.60;;;11.20;99.90;;;;;;6334551;22;20015;-84
2023/03/31 00:30:17;;;;;;;13.23;3.97;;;11.10;99.90;;;;;;6334706;22;20010;-83
2023/03/31 00:32:43;;;;;;;11.35;3.13;;;11.10;99.90;;;;;;6333564;22;20461;-83
2023/03/31 00:35:08;;;;;;;10.85;3.25;;;11.10;99.90;;;;;;6334242;22;20572;-84
2023/03/31 00:37:34;;;;;;;15.60;3.17;;;11.00;99.90;;;;;;6307109;22;20018;-84
2023/03/31 00:40:01;;;;;;;18.90;3.72;;;11.10;99.90;;;;;;6334599;22;20749;-84
2023/03/31 00:42:27;;;;;;;13.27;2.92;;;11.10;99.90;;;;;;6305969;22;20072;-83
2023/03/31 00:45:17;;;;;;;18.65;3.28;;;11.00;99.90;;;;;;6333935;22;20512;-83
2023/03/31 00:47:59;;;;;;;15.05;2.70;;;11.00;99.90;;;;;;6305822;22;20025;-84
2023/03/31 00:50:29;;;;;;;14.05;3.55;;;11.00;99.90;;;;;;6334250;22;20022;-83
2023/03/31 00:53:00;;;;;;;20.60;3.58;;;10.90;99.90;;;;;;6305911;22;20302;-83
2023/03/31 00:55:33;;;;;;;19.38;4.43;;;10.90;99.90;;;;;;6334567;22;20029;-83
2023/03/31 00:58:00;;;;;;;17.05;2.80;;;10.80;99.90;;;;;;6305940;22;20011;-83
2023/03/31 01:00:29;;;;;;;15.95;4.32;;;10.80;99.90;;;;;;6280075;22;20053;-82
2023/03/31 01:03:00;;;;;;;16.23;3.65;;;10.80;99.90;;;;;;6333407;22;20053;-83
2023/03/31 01:05:33;;;;;;;11.35;2.67;;;10.70;99.90;;;;;;6333865;22;20018;-82
2023/03/31 01:08:01;;;;;;;18.15;3.20;;;10.60;99.90;;;;;;6333858;22;20367;-84
2023/03/31 01:10:28;;;;;;;16.77;3.05;;;10.60;99.90;;;;;;6279943;22;20019;-83
2023/03/31 01:12:56;;;;;;;9.73;2.60;;;10.60;99.90;;;;;;6333577;22;20302;-83
2023/03/31 01:15:22;;;;;;;17.58;2.97;;;10.60;99.90;;;;;;6306243;22;20015;-83
2023/03/31 01:17:49;;;;;;;18.45;2.95;;;10.50;99.90;;;;;;6305629;22;20404;-83
2023/03/31 01:20:33;;;;;;;17.52;3.45;;;10.50;99.90;;;;;;6334253;22;20019;-84
2023/03/31 01:23:36;;;;;;;12.30;2.90;;;10.50;99.90;;;;;;6306164;22;20531;-84
2023/03/31 01:26:02;;;;;;;;;;;10.40;99.90;;;;;;6306659;22;20014;-83
2023/03/31 01:28:45;;;;;;;11.75;4.05;;;10.40;99.90;;;;;;6306765;22;20070;-83
2023/03/31 01:31:34;;;;;;;10.40;3.40;;;10.40;99.90;;;;;;6306334;22;20014;-83
2023/03/31 01:34:38;;;;;;;9.93;3.33;;;10.40;99.90;;;;;;6280084;22;20461;-83
2023/03/31 01:37:23;;;;;;;14.05;3.55;;;10.40;99.90;;;;;;6305914;22;20361;-82
2023/03/31 01:40:10;;;;;;;15.35;3.80;;;10.40;99.90;;;;;;6306418;22;20434;-83
2023/03/31 01:42:40;;;;;;;11.63;3.40;;;10.40;99.90;;;;;;6306529;22;20060;-84
2023/03/31 01:45:28;;;;;;;11.90;4.43;;;10.40;99.90;;;;;;6333814;22;20018;-84
2023/03/31 01:48:17;;;;;;;13.68;4.28;;;10.40;99.90;;;;;;6305261;22;20102;-83
2023/03/31 01:51:09;;;;;;;10.38;3.25;;;10.40;99.90;;;;;;6333417;22;20031;-83
2023/03/31 01:54:14;;;;;;;10.47;3.37;;;10.40;99.90;;;;;;6333305;22;20011;-84
2023/03/31 01:56:50;;;;;;;12.73;3.75;;;10.40;99.90;;;;;;6328459;22;20043;-84
2023/03/31 01:59:26;;;;;;;11.93;3.80;;;10.40;99.90;;;;;;6333736;22;20079;-83
2023/03/31 02:02:00;;;;;;;12.52;3.75;;;10.30;99.90;;;;;;6333594;22;20015;-83
2023/03/31 02:04:28;;;;;;;18.10;3.85;;;10.30;99.90;;;;;;6333126;22;20083;-84
2023/03/31 02:07:00;;;;;;;17.27;3.88;;;10.30;99.90;;;;;;6304719;22;20494;-83
2023/03/31 02:09:34;;;;;;;10.30;3.70;;;10.30;99.90;;;;;;6305286;22;20094;-83
2023/03/31 02:12:05;;;;;;;13.20;3.75;;;10.30;99.90;;;;;;6305721;22;20318;-84
2023/03/31 02:14:33;;;;;;;10.18;3.78;;;10.40;99.90;;;;;;6334062;22;20416;-84
2023/03/31 02:17:01;;;;;;;11.73;5.25;;;10.30;99.90;;;;;;6305144;22;20019;-84
2023/03/31 02:19:38;;;;;;;17.45;3.45;;;10.30;99.90;;;;;;6305335;22;20037;-84
2023/03/31 02:22:07;;;;;;;11.88;4.78;;;10.40;99.90;;;;;;6305105;22;20022;-83
2023/03/31 02:24:36;;;;;;;12.10;3.03;;;10.40;99.90;;;;;;6333374;22;20014;-84
2023/03/31 02:27:16;;;;;;;14.13;3.60;;;10.30;99.90;;;;;;6333348;22;20011;-84
2023/03/31 02:29:42;;;;;;;12.15;3.50;;;10.30;99.90;;;;;;6305047;22;20029;-83
2023/03/31 02:32:17;;;;;;;14.88;4.68;;;10.40;99.90;;;;;;6333117;22;20369;-84
2023/03/31 02:34:43;;;;;;;12.23;4.18;;;10.30;99.90;;;;;;6305454;22;20102;-84
2023/03/31 02:37:09;;;;;;;12.63;3.22;;;10.30;99.90;;;;;;6333011;22;20011;-86
2023/03/31 02:39:37;;;;;;;15.15;3.40;;;10.30;99.90;;;;;;6333504;22;20030;-86
2023/03/31 02:42:06;;;;;;;11.52;3.70;;;10.30;99.90;;;;;;6305282;22;20015;-84
2023/03/31 02:44:38;;;;;;;12.80;3.25;;;10.40;99.90;;;;;;6304936;22;20061;-86
2023/03/31 02:47:10;;;;;;;17.20;3.67;;;10.30;99.90;;;;;;6305312;22;20023;-84
2023/03/31 02:49:39;;;;;;;9.50;3.50;;;10.40;99.90;;;;;;6333589;22;20434;-84
2023/03/31 02:52:23;;;;;;;11.13;3.47;;;10.40;99.90;;;;;;6305350;22;20086;-83
2023/03/31 02:55:04;;;;;;;11.90;3.75;;;10.40;99.90;;;;;;6304944;22;20556;-84
2023/03/31 02:57:48;;;;;;;12.20;3.30;;;10.40;99.90;;;;;;6304955;22;20101;-86
2023/03/31 03:00:42;;;;;;;10.60;3.70;;;10.40;99.90;;;;;;6333629;22;20128;-83
2023/03/31 03:03:11;;;;;;;7.10;3.15;;;10.40;99.90;;;;;;6332446;22;20015;-84
2023/03/31 03:06:04;;;;;;;7.40;2.72;;;10.40;99.90;;;;;;6332524;22;20127;-83
2023/03/31 03:08:39;;;;;;;;;;;10.30;99.90;;;;;;6332611;22;20326;-85
2023/03/31 03:11:20;;;;;;;10.63;3.75;;;10.40;99.90;;;;;;6304722;22;19915;-84
2023/03/31 03:13:57;;;;;;;11.40;3.00;;;10.40;99.90;;;;;;6304209;22;20014;-84
2023/03/31 03:16:46;;;;;;;7.90;3.47;;;10.40;99.90;;;;;;6305142;22;20027;-83
2023/03/31 03:19:20;;;;;;;10.27;4.15;;;10.40;99.90;;;;;;6332757;22;20014;-83
2023/03/31 03:21:46;;;;;;;12.50;3.42;;;10.50;99.90;;;;;;6304506;22;20089;-84
2023/03/31 03:24:14;;;;;;;12.07;3.50;;;10.40;99.90;;;;;;6333546;22;20395;-83
2023/03/31 03:26:40;;;;;;;14.70;3.45;;;10.50;99.90;;;;;;6304899;22;20015;-84
2023/03/31 03:29:05;;;;;;;7.85;2.72;;;10.40;99.90;;;;;;6304897;22;20314;-84
2023/03/31 03:31:32;;;;;;;6.68;3.40;;;10.40;99.90;;;;;;6304782;22;20090;-85
2023/03/31 03:33:58;;;;;;;8.30;3.20;;;10.40;99.90;;;;;;6332526;22;20342;-84
2023/03/31 03:36:24;;;;;;;9.75;2.95;;;10.50;99.90;;;;;;6333174;22;20080;-88
2023/03/31 03:38:50;;;;;;;8.02;3.40;;;10.40;99.90;;;;;;6307364;22;20421;-93
2023/03/31 03:41:15;;;;;;;9.40;3.20;;;10.50;99.90;;;;;;6304724;22;20021;-83
2023/03/31 03:43:41;;;;;;;5.20;2.80;;;10.40;99.90;;;;;;6304007;22;20022;-79
2023/03/31 03:46:07;;;;;;;11.05;2.80;;;10.50;99.90;;;;;;6303991;22;20088;-80
2023/03/31 03:48:33;;;;;;;11.52;3.97;;;10.40;99.90;;;;;;6332561;22;20459;-82
2023/03/31 03:51:00;;;;;;;13.45;3.80;;;10.40;99.90;;;;;;6304440;22;20011;-82
2023/03/31 03:53:25;;;;;;;6.65;3.05;;;10.40;99.90;;;;;;6304605;22;20018;-83
2023/03/31 03:55:51;;;;;;;9.93;4.50;;;10.30;99.90;;;;;;6332697;22;20083;-83
2023/03/31 03:58:18;;;;;;;8.07;4.30;;;10.40;99.90;;;;;;6304563;22;20073;-84
2023/03/31 04:00:44;;;;;;;6.57;3.85;;;10.30;99.90;;;;;;6304424;22;20023;-82
2023/03/31 04:03:11;;;;;;;7.38;3.30;;;10.30;99.90;;;;;;6303778;22;20026;-83
2023/03/31 04:05:37;;;;;;;11.00;3.70;;;10.30;99.90;;;;;;6304153;22;20019;-83
2023/03/31 04:08:05;;;;;;;4.85;2.85;;;10.30;99.90;;;;;;6304599;22;20023;-83
2023/03/31 04:10:31;;;;;;;8.93;2.97;;;10.30;99.90;;;;;;6332284;22;20015;-81
2023/03/31 04:12:56;;;;;;;5.88;3.10;;;10.30;99.90;;;;;;6332397;22;20015;-80
2023/03/31 04:15:22;;;;;;;7.68;3.58;;;10.30;99.90;;;;;;6333528;22;20080;-79
2023/03/31 04:17:49;;;;;;;16.35;4.72;;;10.30;99.90;;;;;;6333935;22;20114;-80
2023/03/31 04:20:16;;;;;;;7.90;3.15;;;10.30;99.90;;;;;;6305883;22;20445;-80
2023/03/31 04:22:45;;;;;;;8.95;3.67;;;10.30;99.90;;;;;;6305804;22;20417;-81
2023/03/31 04:25:16;;;;;;;7.45;3.33;;;10.30;99.90;;;;;;6305650;22;20018;-80
2023/03/31 04:27:49;;;;;;;7.63;3.20;;;10.30;99.90;;;;;;6334076;22;20014;-81
2023/03/31 04:30:21;;;;;;;8.45;3.22;;;10.30;99.90;;;;;;6333722;22;20015;-81
2023/03/31 04:32:53;;;;;;;7.55;3.17;;;10.30;99.90;;;;;;6333761;22;20403;-80
2023/03/31 04:35:23;;;;;;;6.63;3.35;;;10.30;99.90;;;;;;6305166;22;20095;-81
2023/03/31 04:37:51;;;;;;;6.40;2.92;;;10.30;99.90;;;;;;6305820;22;20060;-82
2023/03/31 04:40:17;;;;;;;8.18;3.65;;;10.30;99.90;;;;;;6305384;22;20019;-81
2023/03/31 04:42:44;;;;;;;9.55;4.22;;;10.20;99.90;;;;;;6305685;22;20086;-80
2023/03/31 04:45:10;;;;;;;12.20;3.40;;;10.20;99.90;;;;;;6305571;22;20015;-80
2023/03/31 04:47:37;;;;;;;8.88;3.42;;;10.30;99.90;;;;;;6333385;22;20022;-80
2023/03/31 04:50:03;;;;;;;8.70;2.97;;;10.30;99.90;;;;;;6305756;22;20027;-81
2023/03/31 04:52:28;;;;;;;10.85;3.88;;;10.30;99.90;;;;;;6333652;22;20353;-80
2023/03/31 04:54:54;;;;;;;16.05;5.38;;;10.30;99.90;;;;;;6305128;22;20033;-81
2023/03/31 04:57:20;;;;;;;10.25;3.35;;;10.30;99.90;;;;;;6333615;22;20090;-80
2023/03/31 04:59:46;;;;;;;8.98;3.42;;;10.30;99.90;;;;;;6333499;22;20097;-80
2023/03/31 05:02:11;;;;;;;7.95;3.80;;;10.30;99.90;;;;;;6305532;22;20443;-80
2023/03/31 05:04:37;;;;;;;8.50;4.05;;;10.30;99.90;;;;;;6305274;22;20023;-81
2023/03/31 05:07:03;;;;;;;9.73;3.88;;;10.30;99.90;;;;;;6305384;22;20057;-81
2023/03/31 05:09:29;;;;;;;13.88;4.85;;;10.30;99.90;;;;;;6305335;22;20031;-81
2023/03/31 05:11:56;;;;;;;8.90;3.45;;;10.30;99.90;;;;;;6333352;22;20089;-80
2023/03/31 05:14:22;;;;;;;9.00;3.08;;;10.30;99.90;;;;;;6305170;22;20317;-80
2023/03/31 05:16:48;;;;;;;14.10;3.70;;;10.20;99.90;;;;;;6305244;22;20050;-80
2023/03/31 05:19:13;;;;;;;11.95;3.60;;;10.30;99.90;;;;;;6305648;22;20068;-80
2023/03/31 05:21:39;;;;;;;8.43;3.60;;;10.30;99.90;;;;;;6305051;22;20029;-79
2023/03/31 05:24:05;;;;;;;9.00;3.90;;;10.30;99.90;;;;;;6332696;22;20010;-81
2023/03/31 05:26:31;;;;;;;6.85;3.28;;;10.30;99.90;;;;;;6304708;22;20015;-79
2023/03/31 05:28:56;;;;;;;11.25;3.83;;;10.30;99.90;;;;;;6304996;22;20449;-80
2023/03/31 05:31:22;;;;;;;4.70;3.28;;;10.30;99.90;;;;;;6304871;22;20041;-80
2023/03/31 05:33:48;;;;;;;9.82;3.15;;;10.30;99.90;;;;;;6304644;22;20156;-80
2023/03/31 05:36:16;;;;;;;8.00;2.97;;;10.30;99.90;;;;;;6304809;22;20018;-80
2023/03/31 05:38:42;;;;;;;6.63;2.97;;;10.30;99.90;;;;;;6332532;22;20456;-82
2023/03/31 05:41:09;;;;;;;6.78;3.03;;;10.20;99.90;;;;;;6305018;22;20023;-83
2023/03/31 05:43:38;;;;;;;9.23;3.78;;;10.20;99.90;;;;;;6305245;22;20158;-84
2023/03/31 05:46:05;;;;;;;7.43;3.05;;;10.20;99.90;;;;;;6306141;22;20114;-85
2023/03/31 05:48:31;;;;;;;7.22;2.90;;;10.20;99.90;;;;;;6305749;22;20034;-83
2023/03/31 05:50:58;;;;;;;7.45;2.97;;;10.20;99.90;;;;;;6279797;22;20018;-82
2023/03/31 05:53:25;;;;;;;8.52;3.17;;;10.20;99.90;;;;;;6333488;22;20051;-82
2023/03/31 05:55:56;;;;;;;7.97;3.40;;;10.20;99.90;;;;;;6305476;22;20498;-81
2023/03/31 05:58:22;;;;;;;9.93;4.10;;;10.20;99.90;;;;;;6305496;22;20084;-81
2023/03/31 06:00:47;;;;;;;6.70;3.88;;;10.20;99.90;;;;;;6278992;22;20019;-80
2023/03/31 06:03:13;;;;;;;8.32;4.53;;;10.20;99.90;;;;;;6304975;22;20021;-80
2023/03/31 06:05:40;;;;;;;9.10;3.75;;;10.20;99.90;;;;;;6304351;22;20026;-80
2023/03/31 06:08:06;;;;;;;11.38;4.05;;;10.20;99.90;;;;;;6304514;22;20019;-80
2023/03/31 06:10:32;;;;;;;7.60;3.70;;;10.20;99.90;;;;;;6278536;22;20076;-79
2023/03/31 06:12:57;;;;;;;5.05;3.28;;;10.20;99.90;;;;;;6304331;22;20494;-80
2023/03/31 06:15:23;;;;;;;6.18;4.30;;;10.20;99.90;;;;;;6304223;22;20147;-79
2023/03/31 06:17:49;;;;;;;11.10;3.30;;;10.20;99.90;;;;;;6304280;22;20480;-80
2023/03/31 06:20:14;;;;;;;9.43;3.45;;;10.20;99.90;;;;;;6303992;22;20014;-79
2023/03/31 06:22:40;;;;;;;7.13;3.17;;;10.20;99.90;;;;;;6304286;22;20031;-79
2023/03/31 06:25:06;;;;;;;13.43;4.75;;;10.20;99.90;;;;;;6304795;22;20373;-80
2023/03/31 06:27:32;;;;;;;6.32;3.08;;;10.20;99.90;;;;;;6304779;22;20045;-79
2023/03/31 06:29:57;;;;;;;11.00;3.53;;;10.20;99.90;;;;;;6332762;22;20015;-80
2023/03/31 06:32:23;;;;;;;6.22;3.08;;;10.20;99.90;;;;;;6305033;22;20019;-80
2023/03/31 06:34:49;;;;;;;7.78;3.35;;;10.20;99.90;;;;;;6305187;22;20437;-81
2023/03/31 06:37:14;;;;;;;7.70;2.90;;;10.20;99.90;;;;;;6306074;22;20086;-82
2023/03/31 06:39:40;;;;;;;5.30;3.42;;;10.20;99.90;;;;;;6334838;22;20020;-83
2023/03/31 06:42:06;;;;;;;10.80;3.75;;;10.20;99.90;;;;;;6307482;22;20018;-84
2023/03/31 06:44:31;;;;;;;7.18;3.55;;;10.20;99.90;;;;;;6334973;22;20026;-83
2023/03/31 06:46:57;;;;;;;12.05;4.35;;;10.20;99.90;;;;;;6306548;22;20330;-82
2023/03/31 06:49:23;;;;;;;7.80;4.28;;;10.20;99.90;;;;;;6305970;22;20106;-81
2023/03/31 06:51:49;;;;;;;8.55;3.30;;;10.10;99.90;;;;;;6305327;22;20021;-80
2023/03/31 06:54:15;;;;;;;9.18;2.95;;;10.10;99.90;;;;;;6305036;22;20011;-80
2023/03/31 06:56:40;;;;;;;8.73;3.15;;;10.10;99.90;;;;;;6333171;22;20021;-78
2023/03/31 06:59:06;;;;;;;12.85;3.75;;;10.10;99.90;;;;;;6332814;22;20046;-78
2023/03/31 07:01:36;;;;;;;6.70;2.55;;;10.20;99.90;;;;;;6305118;22;20434;-76
2023/03/31 07:04:02;;;;;;;7.75;2.85;;;10.20;99.90;;;;;;6333390;22;20275;-79
2023/03/31 07:06:28;;;;;;;7.43;3.05;;;10.20;99.90;;;;;;6305588;22;20453;-79
2023/03/31 07:08:54;;;;;;;9.25;2.75;;;10.20;99.90;;;;;;6333352;22;20018;-79
2023/03/31 07:11:20;;;;;;;9.18;3.95;;;10.20;99.90;;;;;;6332880;22;20026;-77
2023/03/31 07:13:45;;;;;;;13.38;2.97;;;10.30;99.90;;;;;;6332472;22;20338;-78
2023/03/31 07:16:13;;;;;;;7.75;3.05;;;10.30;99.90;;;;;;6305278;22;20141;-78
2023/03/31 07:18:40;;;;;;;5.60;3.25;;;10.30;99.90;;;;;;6304744;22;20015;-78
2023/03/31 07:21:07;;;;;;;8.35;2.83;;;10.30;99.90;;;;;;6304671;22;20021;-76
2023/03/31 07:23:33;;;;;;;10.07;3.70;;;10.40;99.90;;;;;;6304903;22;20019;-75
2023/03/31 07:26:01;;;;;;;8.23;3.10;;;10.40;99.90;;;;;;6304701;22;20019;-77
2023/03/31 07:28:28;;;;;;;8.05;3.05;;;10.40;99.90;;;;;;6304861;22;20096;-77
2023/03/31 07:30:54;;;;;;;11.82;3.20;;;10.50;99.90;;;;;;6332192;22;20010;-77
2023/03/31 07:33:20;;;;;;;6.72;3.03;;;10.50;99.90;;;;;;6332277;22;20068;-77
2023/03/31 07:35:45;;;;;;;9.38;3.00;;;10.50;99.90;;;;;;6333527;22;20011;-78
2023/03/31 07:38:12;;;;;;;7.63;3.38;;;10.50;99.90;;;;;;6332543;22;20011;-78
2023/03/31 07:40:39;;;;;;;9.48;3.60;;;10.50;99.90;;;;;;6332335;22;20014;-78
2023/03/31 07:43:05;;;;;;;6.00;2.85;;;10.50;99.90;;;;;;6332352;22;20023;-78
2023/03/31 07:45:32;;;;;;;10.80;2.97;;;10.50;99.90;;;;;;6304123;22;20406;-78
2023/03/31 07:47:58;;;;;;;6.25;3.22;;;10.60;99.90;;;;;;6303796;22;20045;-78
2023/03/31 07:50:24;;;;;;;11.50;3.67;;;10.60;99.90;;;;;;6333608;22;20387;-78
2023/03/31 07:52:50;;;;;;;10.20;3.95;;;10.60;99.90;;;;;;6334034;22;20054;-78
2023/03/31 07:55:18;;;;;;;7.18;3.13;;;10.60;99.90;;;;;;6306332;22;20010;-78
2023/03/31 07:57:45;;;;;;;9.18;3.40;;;10.60;99.90;;;;;;6306618;22;20425;-78
2023/03/31 08:00:12;;;;;;;10.57;3.10;;;10.60;99.90;;;;;;6280785;22;20075;-78
2023/03/31 08:02:40;;;;;;;8.55;3.03;;;10.60;99.90;;;;;;6280314;22;20023;-77
2023/03/31 08:05:06;;;;;;;11.27;3.10;;;10.60;99.90;;;;;;6334250;22;20095;-78
2023/03/31 08:07:40;;;;;;;8.13;3.25;;;10.60;99.90;;;;;;6333740;22;20396;-78
2023/03/31 08:10:09;;;;;;;10.05;3.03;;;10.60;99.90;;;;;;6334346;22;20017;-78
2023/03/31 08:12:35;;;;;;;12.75;3.60;;;10.60;99.90;;;;;;6333910;22;20050;-78
2023/03/31 08:15:01;;;;;;;6.43;3.15;;;10.60;99.90;;;;;;6306397;22;20018;-79
2023/03/31 08:17:26;;;;;;;8.27;3.00;;;10.70;99.90;;;;;;6306437;22;20022;-78
2023/03/31 08:19:52;;;;;;;7.57;2.83;;;10.70;99.90;;;;;;6306739;22;20683;-79
2023/03/31 08:22:18;;;;;;;6.20;2.88;;;10.60;99.90;;;;;;6334316;22;20014;-79
2023/03/31 08:24:44;;;;;;;11.32;3.80;;;10.70;99.90;;;;;;6334071;22;20007;-79
2023/03/31 08:27:09;;;;;;;6.00;2.85;;;10.70;99.90;;;;;;6334239;22;20075;-77
2023/03/31 08:29:35;;;;;;;6.18;3.33;;;10.70;99.90;;;;;;6334325;22;20123;-76
2023/03/31 08:32:01;;;;;;;7.47;3.60;;;10.70;99.90;;;;;;6333609;22;20396;-76
2023/03/31 08:34:27;;;;;;;9.15;3.13;;;10.70;99.90;;;;;;6334205;22;20007;-77
2023/03/31 08:36:54;;;;;;;6.72;3.03;;;10.70;99.90;;;;;;6333289;22;20566;-78
2023/03/31 08:39:20;;;;;;;7.15;3.33;;;10.70;99.90;;;;;;6305610;22;20093;-77
2023/03/31 08:42:14;;;;;;;8.00;2.60;;;10.80;99.90;;;;;;6305479;22;20046;-77
2023/03/31 08:44:45;;;;;;;6.47;2.65;;;10.80;99.90;;;;;;6305366;22;20442;-78
2023/03/31 08:47:21;;;;;;;3.97;2.60;;;10.80;99.90;;;;;;6333140;22;20777;-77
2023/03/31 08:49:52;;;;;;;9.02;2.67;;;10.80;99.90;;;;;;6305263;22;20445;-77
2023/03/31 08:52:33;;;;;;;6.45;4.47;;;10.80;99.90;;;;;;6305273;22;20023;-74
2023/03/31 08:55:03;;;;;;;7.03;2.78;;;10.80;99.90;;;;;;6305165;22;20080;-78
2023/03/31 08:57:59;;;;;;;12.65;3.90;;;10.80;99.90;;;;;;6305109;22;20022;-72
2023/03/31 09:00:25;;;;;;;9.80;3.40;;;10.90;99.90;;;;;;6298484;22;20073;-77
2023/03/31 09:03:00;;;;;;;7.93;2.60;;;11.00;99.90;;;;;;6333139;22;20019;-77
2023/03/31 09:05:50;;;;;;;6.95;2.58;;;11.00;99.90;;;;;;6333498;22;20015;-77
2023/03/31 09:08:32;;;;;;;10.98;2.22;;;11.00;99.90;;;;;;6333936;22;20006;-77
2023/03/31 09:11:44;;;;;;;6.95;2.00;;;11.00;99.90;;;;;;6333662;22;20019;-77
2023/03/31 09:14:17;;;;;;;4.82;2.38;;;11.00;99.90;;;;;;6237111;23;20095;-78
2023/03/31 09:17:03;;;;;;;6.88;2.25;;;10.90;99.90;;;;;;6318073;22;20069;-77
2023/03/31 09:19:36;;;;;;;8.82;2.30;;;11.00;99.90;;;;;;6334264;22;20011;-77
2023/03/31 09:22:03;;;;;;;;;;;11.00;99.90;;;;;;6334346;22;20007;-78
2023/03/31 09:24:51;;;;;;;4.25;2.15;;;11.10;99.90;;;;;;6333359;22;19910;-78
2023/03/31 09:27:19;;;;;;;3.80;2.03;;;11.00;99.90;;;;;;6333953;22;20019;-77
2023/03/31 09:30:00;;;;;;;2.67;2.15;;;11.00;99.90;;;;;;6305301;22;20011;-77
2023/03/31 09:32:29;;;;;;;4.18;2.20;;;11.00;99.90;;;;;;6333324;22;20015;-77
2023/03/31 09:35:01;;;;;;;5.35;2.38;;;11.00;99.90;;;;;;6305618;22;20478;-78
2023/03/31 09:37:32;;;;;;;7.60;2.42;;;11.10;99.90;;;;;;6333382;22;20023;-78
2023/03/31 09:40:00;;;;;;;4.97;2.33;;;11.10;99.90;;;;;;6305327;22;20073;-78
2023/03/31 09:42:26;;;;;;;3.95;2.17;;;11.10;99.90;;;;;;6304986;22;20151;-78
2023/03/31 09:44:52;;;;;;;4.85;2.30;;;11.20;99.90;;;;;;6331529;22;20433;-72
2023/03/31 09:47:41;;;;;;;4.47;2.00;;;11.20;99.90;;;;;;6332869;22;20072;-72
2023/03/31 09:50:08;;;;;;;6.38;2.13;;;11.20;99.90;;;;;;6333583;22;20325;-70
2023/03/31 09:52:40;;;;;;;4.63;2.30;;;11.30;99.90;;;;;;6305426;22;20022;-70
2023/03/31 09:55:45;;;;;;;7.75;2.30;;;11.30;99.90;;;;;;6305313;22;20527;-68
2023/03/31 09:58:15;;;;;;;10.00;2.30;;;11.40;99.90;;;;;;6332543;22;20019;-69
2023/03/31 10:00:43;;;;;;;2.20;2.00;;;11.40;99.90;;;;;;6333472;22;20013;-69
2023/03/31 10:03:12;;;;;;;7.68;2.33;;;11.30;99.90;;;;;;6332720;22;20413;-69
2023/03/31 10:05:58;;;;;;;3.45;2.08;;;11.30;99.90;;;;;;6303914;22;20026;-70
2023/03/31 10:08:40;;;;;;;6.43;2.08;;;11.40;99.90;;;;;;6303614;22;20075;-72
2023/03/31 10:11:11;;;;;;;6.55;2.05;;;11.30;99.90;;;;;;6304469;22;20019;-72
2023/03/31 10:13:45;;;;;;;2.40;1.48;;;11.40;99.90;;;;;;6303580;22;20456;-69
2023/03/31 10:16:19;;;;;;;5.05;2.03;;;11.40;99.90;;;;;;6332316;22;20010;-74
2023/03/31 10:18:45;;;;;;;4.05;1.90;;;11.40;99.90;;;;;;6332420;22;20065;-71
2023/03/31 10:21:35;;;;;;;3.35;1.90;;;11.50;99.90;;;;;;6304222;22;20024;-73
2023/03/31 10:24:08;;;;;;;6.72;1.85;;;11.60;99.90;;;;;;6304746;22;20036;-70
2023/03/31 10:26:34;;;;;;;2.15;1.77;;;11.60;99.90;;;;;;6304238;22;20432;-70
2023/03/31 10:29:00;;;;;;;3.92;1.70;;;11.70;99.90;;;;;;6332395;22;20068;-72
2023/03/31 10:31:35;;;;;;;3.83;1.90;;;11.80;99.90;;;;;;6332454;22;20089;-71
2023/03/31 10:34:06;;;;;;;3.25;1.73;;;11.80;99.90;;;;;;6332381;22;20094;-71
2023/03/31 10:36:33;;;;;;;2.70;1.70;;;11.80;99.90;;;;;;6304814;22;20148;-74
2023/03/31 10:39:05;;;;;;;4.88;1.70;;;11.80;99.90;;;;;;6332322;22;20048;-72
2023/03/31 10:41:32;;;;;;;4.68;1.77;;;11.80;99.90;;;;;;6332743;22;20184;-73
2023/03/31 10:44:01;;;;;;;3.35;1.80;;;11.80;99.90;;;;;;6331383;22;20015;-72
2023/03/31 10:46:47;;;;;;;4.28;2.10;;;11.70;99.90;;;;;;6332028;22;20094;-72
2023/03/31 10:49:22;;;;;;;1.88;1.63;;;11.70;99.90;;;;;;6304955;22;20081;-73
2023/03/31 10:51:53;;;;;;;3.33;1.90;;;11.70;99.90;;;;;;6332651;22;20015;-75
2023/03/31 10:54:20;;;;;;;7.97;2.28;;;11.70;99.90;;;;;;6304467;22;20046;-75
2023/03/31 10:56:49;;;;;;;4.28;2.60;;;11.70;99.90;;;;;;6304523;22;20022;-75
2023/03/31 10:59:37;;;;;;;5.32;2.67;;;11.70;99.90;;;;;;6304728;22;20375;-75
2023/03/31 11:02:39;;;;;;;4.63;2.60;;;11.70;99.90;;;;;;6304001;22;20117;-74
2023/03/31 11:05:30;;;;;;;3.95;2.83;;;11.70;99.90;;;;;;6303730;22;20019;-75
2023/03/31 11:08:17;;;;;;;3.17;2.35;;;11.80;99.90;;;;;;6304439;22;20014;-74
2023/03/31 11:10:52;;;;;;;6.15;2.92;;;11.80;99.90;;;;;;6304599;22;20018;-75
2023/03/31 11:13:32;;;;;;;3.03;2.25;;;11.80;99.90;;;;;;6304928;22;20050;-71
2023/03/31 11:16:17;;;;;;;6.25;3.50;;;11.80;99.90;;;;;;6333390;22;20018;-76
2023/03/31 11:18:43;;;;;;;4.35;3.30;;;11.80;99.90;;;;;;6332168;22;20019;-77
2023/03/31 11:21:40;;;;;;;3.08;2.35;;;11.90;99.90;;;;;;6332167;22;20083;-77
2023/03/31 11:24:25;;;;;;;6.18;2.53;;;11.90;99.90;;;;;;6332488;22;20019;-75
2023/03/31 11:27:01;;;;;;;5.95;2.30;;;11.90;99.90;;;;;;6334312;22;20019;-75
2023/03/31 11:29:36;;;;;;;7.47;2.38;;;12.00;99.90;;;;;;6334134;22;20019;-75
2023/03/31 11:32:14;;;;;;;6.35;2.60;;;11.80;99.90;;;;;;6306478;22;20044;-69
2023/03/31 11:35:14;;;;;;;6.95;2.50;;;11.90;99.90;;;;;;6306548;22;20019;-74
2023/03/31 11:37:46;;;;;;;5.90;2.70;;;12.00;99.90;;;;;;6306933;22;20014;-75
2023/03/31 11:40:26;;;;;;;6.88;3.30;;;11.90;99.90;;;;;;6306832;22;20015;-75
2023/03/31 11:43:01;;;;;;;3.95;2.50;;;11.90;99.90;;;;;;6334508;22;20048;-75
2023/03/31 11:45:36;;;;;;;4.88;2.60;;;11.90;99.90;;;;;;6334602;22;20014;-75
2023/03/31 11:48:09;;;;;;;3.55;2.67;;;12.00;99.90;;;;;;6333897;22;20025;-75
2023/03/31 11:50:38;;;;;;;7.20;2.60;;;12.00;99.90;;;;;;6306401;22;20019;-75
2023/03/31 11:53:32;;;;;;;4.35;2.60;;;12.00;99.90;;;;;;6305988;22;20023;-75
2023/03/31 11:56:01;;;;;;;7.45;3.08;;;12.00;99.90;;;;;;6271203;22;20026;-75
2023/03/31 11:58:36;;;;;;;9.15;2.67;;;11.90;99.90;;;;;;6333884;22;20017;-76
2023/03/31 12:01:24;;;;;;;8.35;2.60;;;12.00;99.90;;;;;;6333953;22;20040;-75
2023/03/31 12:04:03;;;;;;;6.63;2.72;;;12.00;99.90;;;;;;6333977;22;20018;-75
2023/03/31 12:06:38;;;;;;;6.03;3.10;;;12.00;99.90;;;;;;6334196;22;20015;-75
2023/03/31 12:09:33;;;;;;;6.50;2.83;;;12.00;99.90;;;;;;6334257;22;20019;-75
2023/03/31 12:12:06;;;;;;;7.38;3.13;;;12.00;99.90;;;;;;6305562;22;20015;-76
2023/03/31 12:14:55;;;;;;;13.52;3.17;;;12.00;99.90;;;;;;6333740;22;20046;-77
2023/03/31 12:17:25;;;;;;;7.47;2.83;;;12.00;99.90;;;;;;6290087;22;20051;-84
2023/03/31 12:19:59;;;;;;;12.50;3.42;;;11.90;99.90;;;;;;6307819;22;20015;-83
2023/03/31 12:22:26;;;;;;;9.63;2.85;;;11.90;99.90;;;;;;6335606;22;20022;-82
2023/03/31 12:24:54;;;;;;;8.10;3.40;;;11.90;99.90;;;;;;6308192;22;20022;-86
2023/03/31 12:27:33;;;;;;;8.38;3.05;;;12.00;99.90;;;;;;6306616;22;20027;-78
2023/03/31 12:30:12;;;;;;;7.30;3.08;;;12.10;99.90;;;;;;6280573;22;20026;-79
2023/03/31 12:32:47;;;;;;;11.38;3.80;;;12.20;99.90;;;;;;6306156;22;20345;-77
2023/03/31 12:35:23;;;;;;;10.85;2.97;;;12.30;99.90;;;;;;6305861;22;20014;-77
2023/03/31 12:38:29;;;;;;;11.73;3.20;;;12.30;99.90;;;;;;6333955;22;20094;-76
2023/03/31 12:41:22;;;;;;;11.25;2.97;;;12.30;99.90;;;;;;6332497;22;20383;-76
2023/03/31 12:43:53;;;;;;;12.15;3.20;;;12.40;99.90;;;;;;6333280;22;20044;-76
2023/03/31 12:46:31;;;;;;;14.80;4.25;;;12.40;99.90;;;;;;6304923;22;20019;-76
2023/03/31 12:49:09;;;;;;;11.32;3.58;;;12.50;99.90;;;;;;6305533;22;20023;-75
2023/03/31 12:52:16;;;;;;;12.93;3.95;;;12.50;99.90;;;;;;6305651;22;20362;-77
2023/03/31 12:55:03;;;;;;;5.78;3.25;;;12.50;99.90;;;;;;6333531;22;20023;-76
2023/03/31 12:57:29;;;;;;;7.55;3.17;;;12.60;99.90;;;;;;6333917;22;20007;-77
2023/03/31 13:00:16;;;;;;;13.50;3.15;;;12.60;99.90;;;;;;6305931;22;20022;-77
2023/03/31 13:02:42;;;;;;;6.88;2.63;;;12.50;99.90;;;;;;6305772;22;20112;-76
2023/03/31 13:05:36;;;;;;;13.35;3.50;;;12.60;99.90;;;;;;6332033;22;20018;-76
2023/03/31 13:08:07;;;;;;;11.82;3.08;;;12.60;99.90;;;;;;6295369;22;20339;-77